sensor_id;sensor_type;location;lat;lon;timestamp;pressure;altitude;pressure_sealevel;temperature;humidity
78590;BME280;67888;50.228;7.828;2023-02-21T00:04:24;99625.78;;;1.07;83.34
78590;BME280;67888;50.228;7.828;2023-02-21T00:09:42;99620.44;;;1.16;81.99
78590;BME280;67888;50.228;7.828;2023-02-21T00:15:02;99616.47;;;1.13;82.90
78590;BME280;67888;50.228;7.828;2023-02-21T00:20:21;99610.66;;;1.11;83.39
78590;BME280;67888;50.228;7.828;2023-02-21T00:25:40;99602.91;;;1.18;83.30
78590;BME280;67888;50.228;7.828;2023-02-21T00:30:59;99602.81;;;0.85;82.97
78590;BME280;67888;50.228;7.828;2023-02-21T00:36:18;99594.44;;;0.89;83.34
78590;BME280;67888;50.228;7.828;2023-02-21T00:41:37;99602.56;;;0.80;83.64
78590;BME280;67888;50.228;7.828;2023-02-21T00:46:56;99600.41;;;0.83;83.60
78590;BME280;67888;50.228;7.828;2023-02-21T00:52:15;99597.63;;;0.91;82.83
78590;BME280;67888;50.228;7.828;2023-02-21T00:57:34;99602.19;;;0.89;82.61
78590;BME280;67888;50.228;7.828;2023-02-21T01:02:53;99599.97;;;0.73;83.10
78590;BME280;67888;50.228;7.828;2023-02-21T01:08:12;99598.56;;;0.70;83.53
78590;BME280;67888;50.228;7.828;2023-02-21T01:13:32;99607.06;;;0.58;83.74
78590;BME280;67888;50.228;7.828;2023-02-21T01:18:51;99595.91;;;0.57;83.80
78590;BME280;67888;50.228;7.828;2023-02-21T01:24:12;99594.13;;;0.58;83.76
78590;BME280;67888;50.228;7.828;2023-02-21T01:29:32;99614.09;;;0.70;83.31
78590;BME280;67888;50.228;7.828;2023-02-21T01:34:51;99600.72;;;0.60;83.69
78590;BME280;67888;50.228;7.828;2023-02-21T01:40:14;99604.59;;;0.15;84.96
78590;BME280;67888;50.228;7.828;2023-02-21T01:45:43;99610.91;;;0.34;83.46
78590;BME280;67888;50.228;7.828;2023-02-21T01:51:05;99613.94;;;0.38;83.69
78590;BME280;67888;50.228;7.828;2023-02-21T01:56:27;99598.84;;;0.48;83.63
78590;BME280;67888;50.228;7.828;2023-02-21T02:01:53;99599.47;;;0.50;83.60
78590;BME280;67888;50.228;7.828;2023-02-21T02:07:14;99598.41;;;0.38;84.61
78590;BME280;67888;50.228;7.828;2023-02-21T02:18:25;99596.66;;;0.17;84.56
78590;BME280;67888;50.228;7.828;2023-02-21T02:39:28;99592.28;;;0.17;84.10
78590;BME280;67888;50.228;7.828;2023-02-21T02:44:37;99591.34;;;0.25;84.08
78590;BME280;67888;50.228;7.828;2023-02-21T02:49:41;99593.16;;;0.31;83.67
78590;BME280;67888;50.228;7.828;2023-02-21T02:54:43;99582.06;;;0.37;83.11
78590;BME280;67888;50.228;7.828;2023-02-21T02:59:44;99587.72;;;0.19;84.78
78590;BME280;67888;50.228;7.828;2023-02-21T03:05:04;99582.66;;;0.39;84.33
78590;BME280;67888;50.228;7.828;2023-02-21T03:10:16;99581.91;;;0.45;84.58
78590;BME280;67888;50.228;7.828;2023-02-21T03:20:19;99562.13;;;0.72;82.98
78590;BME280;67888;50.228;7.828;2023-02-21T03:25:22;99561.47;;;0.63;83.20
78590;BME280;67888;50.228;7.828;2023-02-21T03:30:23;99554.78;;;0.34;84.25
78590;BME280;67888;50.228;7.828;2023-02-21T03:35:27;99551.81;;;0.38;83.81
78590;BME280;67888;50.228;7.828;2023-02-21T03:40:32;99558.34;;;0.33;84.23
78590;BME280;67888;50.228;7.828;2023-02-21T03:45:35;99557.97;;;0.37;83.72
78590;BME280;67888;50.228;7.828;2023-02-21T03:50:35;99561.06;;;0.19;84.33
78590;BME280;67888;50.228;7.828;2023-02-21T03:55:36;99555.13;;;0.25;84.17
78590;BME280;67888;50.228;7.828;2023-02-21T04:00:36;99558.22;;;0.14;84.77
78590;BME280;67888;50.228;7.828;2023-02-21T04:05:37;99561.31;;;-0.04;84.73
78590;BME280;67888;50.228;7.828;2023-02-21T04:10:37;99565.34;;;0.05;84.18
78590;BME280;67888;50.228;7.828;2023-02-21T04:15:38;99568.53;;;0.07;84.15
78590;BME280;67888;50.228;7.828;2023-02-21T04:20:38;99572.47;;;0.03;84.39
78590;BME280;67888;50.228;7.828;2023-02-21T04:25:39;99561.41;;;0.16;84.50
78590;BME280;67888;50.228;7.828;2023-02-21T04:30:40;99563.56;;;0.06;84.43
78590;BME280;67888;50.228;7.828;2023-02-21T04:35:40;99562.53;;;0.00;84.57
78590;BME280;67888;50.228;7.828;2023-02-21T04:40:41;99566.13;;;-0.01;84.58
78590;BME280;67888;50.228;7.828;2023-02-21T04:45:41;99565.25;;;-0.08;84.89
78590;BME280;67888;50.228;7.828;2023-02-21T04:50:42;99564.72;;;0.03;84.03
78590;BME280;67888;50.228;7.828;2023-02-21T04:55:43;99554.53;;;-0.05;84.19
78590;BME280;67888;50.228;7.828;2023-02-21T05:00:43;99552.94;;;-0.06;84.15
78590;BME280;67888;50.228;7.828;2023-02-21T05:05:44;99558.28;;;-0.08;84.55
78590;BME280;67888;50.228;7.828;2023-02-21T05:10:44;99544.94;;;-0.39;85.64
78590;BME280;67888;50.228;7.828;2023-02-21T05:15:45;99545.22;;;-0.27;84.54
78590;BME280;67888;50.228;7.828;2023-02-21T05:20:46;99544.84;;;-0.24;84.44
78590;BME280;67888;50.228;7.828;2023-02-21T05:25:46;99551.59;;;-0.23;84.36
78590;BME280;67888;50.228;7.828;2023-02-21T05:30:47;99544.47;;;-0.21;84.36
78590;BME280;67888;50.228;7.828;2023-02-21T05:35:48;99544.84;;;-0.24;84.75
78590;BME280;67888;50.228;7.828;2023-02-21T05:40:48;99546.88;;;-0.20;84.70
78590;BME280;67888;50.228;7.828;2023-02-21T05:45:49;99552.41;;;-0.23;83.87
78590;BME280;67888;50.228;7.828;2023-02-21T05:50:49;99547.56;;;-0.32;84.69
78590;BME280;67888;50.228;7.828;2023-02-21T05:55:50;99557.19;;;-0.26;84.07
78590;BME280;67888;50.228;7.828;2023-02-21T06:00:50;99553.53;;;-0.32;84.03
78590;BME280;67888;50.228;7.828;2023-02-21T06:05:51;99555.06;;;-0.38;84.60
78590;BME280;67888;50.228;7.828;2023-02-21T06:10:52;99559.47;;;-0.38;84.34
78590;BME280;67888;50.228;7.828;2023-02-21T06:15:53;99560.06;;;-0.36;84.54
78590;BME280;67888;50.228;7.828;2023-02-21T06:20:54;99559.53;;;-0.53;85.17
78590;BME280;67888;50.228;7.828;2023-02-21T06:25:54;99555.72;;;-0.57;84.63
78590;BME280;67888;50.228;7.828;2023-02-21T06:30:55;99560.38;;;-0.46;85.06
78590;BME280;67888;50.228;7.828;2023-02-21T06:35:56;99565.38;;;-0.44;84.51
78590;BME280;67888;50.228;7.828;2023-02-21T06:40:57;99558.28;;;-0.36;84.54
78590;BME280;67888;50.228;7.828;2023-02-21T06:45:57;99570.22;;;-0.34;84.24
78590;BME280;67888;50.228;7.828;2023-02-21T06:50:58;99563.94;;;-0.25;83.86
78590;BME280;67888;50.228;7.828;2023-02-21T06:55:58;99554.44;;;-0.18;84.02
78590;BME280;67888;50.228;7.828;2023-02-21T07:00:59;99554.69;;;-0.13;83.60
78590;BME280;67888;50.228;7.828;2023-02-21T07:06:00;99560.22;;;-0.16;83.82
78590;BME280;67888;50.228;7.828;2023-02-21T07:11:00;99552.19;;;0.00;83.46
78590;BME280;67888;50.228;7.828;2023-02-21T07:16:02;99539.75;;;0.17;83.06
78590;BME280;67888;50.228;7.828;2023-02-21T07:21:02;99537.59;;;0.27;82.83
78590;BME280;67888;50.228;7.828;2023-02-21T07:26:03;99540.06;;;0.42;82.73
78590;BME280;67888;50.228;7.828;2023-02-21T07:31:04;99538.13;;;0.50;83.43
78590;BME280;67888;50.228;7.828;2023-02-21T07:36:05;99541.31;;;0.52;83.20
78590;BME280;67888;50.228;7.828;2023-02-21T07:41:06;99539.78;;;0.71;83.42
78590;BME280;67888;50.228;7.828;2023-02-21T07:46:11;99544.94;;;0.64;84.00
78590;BME280;67888;50.228;7.828;2023-02-21T07:51:12;99547.03;;;0.95;83.63
78590;BME280;67888;50.228;7.828;2023-02-21T07:56:12;99552.66;;;1.12;83.09
78590;BME280;67888;50.228;7.828;2023-02-21T08:01:13;99552.88;;;1.30;83.16
78590;BME280;67888;50.228;7.828;2023-02-21T08:06:14;99551.31;;;1.49;83.00
78590;BME280;67888;50.228;7.828;2023-02-21T08:11:14;99555.88;;;1.80;82.65
78590;BME280;67888;50.228;7.828;2023-02-21T08:16:15;99556.91;;;1.86;83.13
78590;BME280;67888;50.228;7.828;2023-02-21T08:21:16;99553.91;;;2.02;84.04
78590;BME280;67888;50.228;7.828;2023-02-21T08:26:16;99549.22;;;2.37;83.20
78590;BME280;67888;50.228;7.828;2023-02-21T08:31:17;99548.94;;;2.65;82.11
78590;BME280;67888;50.228;7.828;2023-02-21T08:36:17;99545.44;;;2.84;81.74
78590;BME280;67888;50.228;7.828;2023-02-21T08:41:17;99534.72;;;3.05;81.50
78590;BME280;67888;50.228;7.828;2023-02-21T08:46:18;99532.38;;;3.29;81.66
78590;BME280;67888;50.228;7.828;2023-02-21T08:51:24;99534.75;;;3.55;80.79
78590;BME280;67888;50.228;7.828;2023-02-21T08:56:25;99530.13;;;3.82;80.42
78590;BME280;67888;50.228;7.828;2023-02-21T09:01:31;99528.66;;;4.11;80.15
78590;BME280;67888;50.228;7.828;2023-02-21T09:06:32;99520.72;;;4.42;79.74
78590;BME280;67888;50.228;7.828;2023-02-21T09:11:32;99518.66;;;4.81;80.10
78590;BME280;67888;50.228;7.828;2023-02-21T09:16:32;99516.69;;;5.06;79.54
78590;BME280;67888;50.228;7.828;2023-02-21T09:21:34;99513.22;;;5.35;79.56
78590;BME280;67888;50.228;7.828;2023-02-21T09:26:34;99506.91;;;5.66;80.09
78590;BME280;67888;50.228;7.828;2023-02-21T09:31:35;99508.19;;;5.99;79.17
78590;BME280;67888;50.228;7.828;2023-02-21T09:36:35;99510.50;;;6.35;78.55
78590;BME280;67888;50.228;7.828;2023-02-21T09:41:36;99504.13;;;6.71;77.50
78590;BME280;67888;50.228;7.828;2023-02-21T09:46:43;99494.22;;;7.02;76.94
78590;BME280;67888;50.228;7.828;2023-02-21T09:51:44;99497.28;;;7.44;75.57
78590;BME280;67888;50.228;7.828;2023-02-21T09:56:48;99501.47;;;7.62;75.95
78590;BME280;67888;50.228;7.828;2023-02-21T10:02:02;99504.34;;;7.99;75.53
78590;BME280;67888;50.228;7.828;2023-02-21T10:07:25;99497.13;;;8.27;75.87
78590;BME280;67888;50.228;7.828;2023-02-21T10:17:40;99498.38;;;8.90;73.04
78590;BME280;67888;50.228;7.828;2023-02-21T10:22:44;99492.97;;;9.02;73.33
78590;BME280;67888;50.228;7.828;2023-02-21T10:27:46;99499.00;;;9.29;72.57
78590;BME280;67888;50.228;7.828;2023-02-21T10:32:48;99493.03;;;9.39;71.62
78590;BME280;67888;50.228;7.828;2023-02-21T10:37:55;99500.03;;;9.60;71.52
78590;BME280;67888;50.228;7.828;2023-02-21T10:43:06;99492.56;;;9.89;72.01
78590;BME280;67888;50.228;7.828;2023-02-21T10:48:11;99492.16;;;10.07;70.41
78590;BME280;67888;50.228;7.828;2023-02-21T10:53:26;99489.41;;;10.34;69.59
78590;BME280;67888;50.228;7.828;2023-02-21T10:58:27;99486.56;;;10.51;70.20
78590;BME280;67888;50.228;7.828;2023-02-21T11:03:29;99483.72;;;10.58;67.88
78590;BME280;67888;50.228;7.828;2023-02-21T11:08:37;99475.03;;;10.62;68.33
78590;BME280;67888;50.228;7.828;2023-02-21T11:13:37;99470.56;;;10.68;69.37
78590;BME280;67888;50.228;7.828;2023-02-21T11:18:38;99471.41;;;10.84;67.36
78590;BME280;67888;50.228;7.828;2023-02-21T11:23:45;99451.66;;;11.06;67.30
78590;BME280;67888;50.228;7.828;2023-02-21T11:28:48;99451.41;;;11.23;67.33
78590;BME280;67888;50.228;7.828;2023-02-21T11:33:56;99447.41;;;11.61;66.72
78590;BME280;67888;50.228;7.828;2023-02-21T11:39:14;99433.94;;;11.88;67.34
78590;BME280;67888;50.228;7.828;2023-02-21T11:44:35;99427.00;;;12.07;65.48
78590;BME280;67888;50.228;7.828;2023-02-21T11:54:56;99408.81;;;12.55;65.83
78590;BME280;67888;50.228;7.828;2023-02-21T12:22:00;99371.19;;;13.36;62.50
78590;BME280;67888;50.228;7.828;2023-02-21T12:27:14;99361.75;;;13.78;62.87
78590;BME280;67888;50.228;7.828;2023-02-21T12:48:48;99331.19;;;14.47;59.98
78590;BME280;67888;50.228;7.828;2023-02-21T13:04:04;99317.09;;;14.97;56.93
78590;BME280;67888;50.228;7.828;2023-02-21T13:10:30;99303.84;;;15.93;56.20
78590;BME280;67888;50.228;7.828;2023-02-21T13:15:03;99300.84;;;16.67;53.34
78590;BME280;67888;50.228;7.828;2023-02-21T13:20:15;99288.78;;;16.92;51.68
78590;BME280;67888;50.228;7.828;2023-02-21T13:31:03;99275.63;;;26.05;32.05
78590;BME280;67888;50.228;7.828;2023-02-21T13:41:24;99266.44;;;28.14;27.37
78590;BME280;67888;50.228;7.828;2023-02-21T13:51:49;99248.22;;;29.89;24.57
78590;BME280;67888;50.228;7.828;2023-02-21T13:56:52;99247.59;;;28.46;26.51
78590;BME280;67888;50.228;7.828;2023-02-21T14:02:25;99236.78;;;30.29;23.23
78590;BME280;67888;50.228;7.828;2023-02-21T14:07:47;99222.91;;;26.48;27.97
78590;BME280;67888;50.228;7.828;2023-02-21T14:13:01;99232.97;;;28.86;24.31
78590;BME280;67888;50.228;7.828;2023-02-21T14:18:02;99229.53;;;30.68;22.13
78590;BME280;67888;50.228;7.828;2023-02-21T14:23:03;99221.66;;;29.34;22.84
78590;BME280;67888;50.228;7.828;2023-02-21T14:28:48;99227.19;;;30.73;22.20
78590;BME280;67888;50.228;7.828;2023-02-21T14:33:45;99218.94;;;29.45;24.19
78590;BME280;67888;50.228;7.828;2023-02-21T14:38:51;99212.78;;;26.38;28.61
78590;BME280;67888;50.228;7.828;2023-02-21T14:55:13;99201.59;;;28.36;25.08
78590;BME280;67888;50.228;7.828;2023-02-21T15:05:52;99191.38;;;30.85;22.60
78590;BME280;67888;50.228;7.828;2023-02-21T15:11:01;99187.63;;;29.01;24.16
78590;BME280;67888;50.228;7.828;2023-02-21T15:16:07;99184.84;;;29.44;24.02
78590;BME280;67888;50.228;7.828;2023-02-21T15:31:25;99179.16;;;30.63;23.40
78590;BME280;67888;50.228;7.828;2023-02-21T15:36:27;99175.28;;;28.47;24.76
78590;BME280;67888;50.228;7.828;2023-02-21T15:41:41;99164.44;;;28.68;24.58
78590;BME280;67888;50.228;7.828;2023-02-21T15:46:59;99170.19;;;28.13;26.10
78590;BME280;67888;50.228;7.828;2023-02-21T15:52:02;99162.97;;;25.91;28.75
78590;BME280;67888;50.228;7.828;2023-02-21T16:07:33;99152.06;;;20.44;39.44
78590;BME280;67888;50.228;7.828;2023-02-21T16:12:37;99146.56;;;18.06;44.88
78590;BME280;67888;50.228;7.828;2023-02-21T16:17:39;99140.47;;;17.19;48.11
78590;BME280;67888;50.228;7.828;2023-02-21T16:22:42;99143.72;;;16.29;51.62
78590;BME280;67888;50.228;7.828;2023-02-21T16:28:10;99134.09;;;15.44;54.45
78590;BME280;67888;50.228;7.828;2023-02-21T16:33:11;99138.91;;;14.64;56.44
78590;BME280;67888;50.228;7.828;2023-02-21T16:38:17;99138.47;;;13.65;60.10
78590;BME280;67888;50.228;7.828;2023-02-21T16:43:24;99138.13;;;13.10;60.81
78590;BME280;67888;50.228;7.828;2023-02-21T16:48:27;99133.72;;;12.82;61.66
78590;BME280;67888;50.228;7.828;2023-02-21T16:53:32;99135.63;;;12.00;64.83
78590;BME280;67888;50.228;7.828;2023-02-21T16:58:36;99141.13;;;11.25;66.75
78590;BME280;67888;50.228;7.828;2023-02-21T17:03:37;99141.00;;;11.01;67.27
78590;BME280;67888;50.228;7.828;2023-02-21T17:08:37;99149.59;;;10.43;68.89
78590;BME280;67888;50.228;7.828;2023-02-21T17:13:37;99149.88;;;10.21;69.72
78590;BME280;67888;50.228;7.828;2023-02-21T17:18:38;99155.13;;;10.00;68.86
78590;BME280;67888;50.228;7.828;2023-02-21T17:23:40;99157.47;;;9.77;70.56
78590;BME280;67888;50.228;7.828;2023-02-21T17:28:40;99156.94;;;9.49;72.09
78590;BME280;67888;50.228;7.828;2023-02-21T17:33:41;99161.91;;;8.78;74.09
78590;BME280;67888;50.228;7.828;2023-02-21T17:38:41;99168.09;;;7.88;75.19
78590;BME280;67888;50.228;7.828;2023-02-21T17:43:42;99166.78;;;8.17;74.04
78590;BME280;67888;50.228;7.828;2023-02-21T17:48:43;99168.28;;;8.08;74.70
78590;BME280;67888;50.228;7.828;2023-02-21T17:53:43;99163.41;;;7.90;74.46
78590;BME280;67888;50.228;7.828;2023-02-21T17:58:44;99170.78;;;7.66;74.47
78590;BME280;67888;50.228;7.828;2023-02-21T18:03:46;99168.13;;;7.61;74.07
78590;BME280;67888;50.228;7.828;2023-02-21T18:08:47;99167.06;;;7.35;75.50
78590;BME280;67888;50.228;7.828;2023-02-21T18:13:48;99171.09;;;6.77;77.64
78590;BME280;67888;50.228;7.828;2023-02-21T18:18:48;99173.00;;;6.82;76.66
78590;BME280;67888;50.228;7.828;2023-02-21T18:23:50;99175.31;;;6.23;77.95
78590;BME280;67888;50.228;7.828;2023-02-21T18:28:50;99167.47;;;6.40;75.77
78590;BME280;67888;50.228;7.828;2023-02-21T18:33:51;99170.41;;;6.27;76.63
78590;BME280;67888;50.228;7.828;2023-02-21T18:38:51;99177.22;;;6.11;77.05
78590;BME280;67888;50.228;7.828;2023-02-21T18:43:52;99177.84;;;6.01;76.97
78590;BME280;67888;50.228;7.828;2023-02-21T18:48:52;99173.91;;;5.87;77.67
78590;BME280;67888;50.228;7.828;2023-02-21T18:53:53;99181.41;;;5.67;78.82
78590;BME280;67888;50.228;7.828;2023-02-21T18:58:54;99180.00;;;5.31;78.19
78590;BME280;67888;50.228;7.828;2023-02-21T19:03:55;99172.66;;;5.16;77.61
78590;BME280;67888;50.228;7.828;2023-02-21T19:08:55;99166.81;;;4.86;79.26
78590;BME280;67888;50.228;7.828;2023-02-21T19:13:56;99169.56;;;4.91;78.87
78590;BME280;67888;50.228;7.828;2023-02-21T19:18:58;99166.97;;;4.79;79.10
78590;BME280;67888;50.228;7.828;2023-02-21T19:23:59;99171.41;;;4.67;78.92
78590;BME280;67888;50.228;7.828;2023-02-21T19:28:59;99182.50;;;4.51;78.07
78590;BME280;67888;50.228;7.828;2023-02-21T19:34:00;99182.72;;;4.49;77.64
78590;BME280;67888;50.228;7.828;2023-02-21T19:39:02;99181.28;;;4.30;78.46
78590;BME280;67888;50.228;7.828;2023-02-21T19:44:03;99181.38;;;4.23;80.16
78590;BME280;67888;50.228;7.828;2023-02-21T19:49:04;99177.63;;;4.19;79.97
78590;BME280;67888;50.228;7.828;2023-02-21T19:54:18;99181.50;;;4.17;79.92
78590;BME280;67888;50.228;7.828;2023-02-21T19:59:20;99189.38;;;4.10;80.27
78590;BME280;67888;50.228;7.828;2023-02-21T20:04:22;99179.31;;;3.60;81.55
78590;BME280;67888;50.228;7.828;2023-02-21T20:09:23;99182.28;;;3.64;80.51
78590;BME280;67888;50.228;7.828;2023-02-21T20:14:25;99177.09;;;3.46;81.39
78590;BME280;67888;50.228;7.828;2023-02-21T20:19:26;99176.34;;;3.57;80.51
78590;BME280;67888;50.228;7.828;2023-02-21T20:24:29;99168.34;;;3.10;81.99
78590;BME280;67888;50.228;7.828;2023-02-21T20:29:30;99175.16;;;3.11;81.64
78590;BME280;67888;50.228;7.828;2023-02-21T20:34:31;99176.44;;;3.20;81.65
78590;BME280;67888;50.228;7.828;2023-02-21T20:39:32;99179.63;;;3.22;81.50
78590;BME280;67888;50.228;7.828;2023-02-21T20:44:35;99177.31;;;2.96;80.98
78590;BME280;67888;50.228;7.828;2023-02-21T20:49:37;99170.47;;;2.83;81.13
78590;BME280;67888;50.228;7.828;2023-02-21T20:54:39;99171.09;;;2.79;81.80
78590;BME280;67888;50.228;7.828;2023-02-21T20:59:40;99166.50;;;2.81;81.24
78590;BME280;67888;50.228;7.828;2023-02-21T21:04:42;99175.28;;;2.62;81.87
78590;BME280;67888;50.228;7.828;2023-02-21T21:09:42;99163.22;;;2.67;81.03
78590;BME280;67888;50.228;7.828;2023-02-21T21:14:45;99166.03;;;2.47;82.64
78590;BME280;67888;50.228;7.828;2023-02-21T21:19:47;99168.09;;;2.64;81.54
78590;BME280;67888;50.228;7.828;2023-02-21T21:24:51;99165.47;;;2.45;81.51
78590;BME280;67888;50.228;7.828;2023-02-21T21:29:52;99164.28;;;2.41;81.63
78590;BME280;67888;50.228;7.828;2023-02-21T21:34:55;99161.69;;;2.23;82.15
78590;BME280;67888;50.228;7.828;2023-02-21T21:39:56;99169.94;;;2.13;82.30
78590;BME280;67888;50.228;7.828;2023-02-21T21:44:56;99164.22;;;2.05;82.39
78590;BME280;67888;50.228;7.828;2023-02-21T21:49:57;99163.84;;;2.01;82.20
78590;BME280;67888;50.228;7.828;2023-02-21T21:54:58;99159.41;;;2.08;81.62
78590;BME280;67888;50.228;7.828;2023-02-21T21:59:59;99161.28;;;2.01;82.01
78590;BME280;67888;50.228;7.828;2023-02-21T22:04:59;99156.97;;;1.89;82.15
78590;BME280;67888;50.228;7.828;2023-02-21T22:10:00;99150.88;;;1.76;82.05
78590;BME280;67888;50.228;7.828;2023-02-21T22:15:00;99149.50;;;1.74;82.34
78590;BME280;67888;50.228;7.828;2023-02-21T22:20:02;99142.38;;;1.63;83.04
78590;BME280;67888;50.228;7.828;2023-02-21T22:25:18;99139.53;;;1.71;82.62
78590;BME280;67888;50.228;7.828;2023-02-21T22:30:20;99126.25;;;1.61;82.08
78590;BME280;67888;50.228;7.828;2023-02-21T22:35:23;99135.03;;;1.53;82.93
78590;BME280;67888;50.228;7.828;2023-02-21T22:40:25;99132.78;;;1.38;82.85
78590;BME280;67888;50.228;7.828;2023-02-21T22:45:28;99121.22;;;1.34;82.48
78590;BME280;67888;50.228;7.828;2023-02-21T22:50:32;99117.06;;;1.27;82.27
78590;BME280;67888;50.228;7.828;2023-02-21T22:55:36;99116.50;;;1.25;82.03
78590;BME280;67888;50.228;7.828;2023-02-21T23:00:37;99112.13;;;1.19;82.85
78590;BME280;67888;50.228;7.828;2023-02-21T23:05:45;99109.53;;;1.19;83.00
78590;BME280;67888;50.228;7.828;2023-02-21T23:10:46;99101.44;;;1.08;82.62
78590;BME280;67888;50.228;7.828;2023-02-21T23:15:47;99097.50;;;0.99;82.90
78590;BME280;67888;50.228;7.828;2023-02-21T23:20:49;99093.09;;;1.00;83.19
78590;BME280;67888;50.228;7.828;2023-02-21T23:25:57;99090.28;;;0.57;83.27
78590;BME280;67888;50.228;7.828;2023-02-21T23:30:58;99093.63;;;0.64;83.66
78590;BME280;67888;50.228;7.828;2023-02-21T23:35:58;99097.44;;;0.61;83.24
78590;BME280;67888;50.228;7.828;2023-02-21T23:40:59;99099.59;;;0.64;82.99
78590;BME280;67888;50.228;7.828;2023-02-21T23:46:04;99095.06;;;0.60;83.01
78590;BME280;67888;50.228;7.828;2023-02-21T23:51:08;99088.09;;;0.54;82.99
78590;BME280;67888;50.228;7.828;2023-02-21T23:56:10;99086.31;;;0.61;82.65
